Flight Track Log - Related Links

Times and Time Zones

All times are in EDT time to prevent confusion due to time zone crossing. See the JBU1183 flight status page for this flight to view local times or setup timezone preferences in your user account.

Time Position Orientation Groundspeed Altitude Reporting Facility
EDT Latitude Longitude Course Direction KTS MPH feet Rate Location/Type
Thu 10:35:33 PM 40.6460 -73.7720 34° Northeast  Level FlightAware ADS-B
Thu 10:38:00 PM 40.4453 -73.9191 143° Southeast  Level Estimated
Thu 10:39:00 PM 40.3634 -73.9789 143° Southeast  Level Estimated
Thu 10:40:00 PM 40.2814 -74.0385 143° Southeast  Level Estimated
Thu 10:41:00 PM 40.1994 -74.0980 146° Southeast  Level Estimated
Thu 10:42:00 PM 40.1833 -73.9771 100° East  Level FlightAware Approximate
Thu 10:43:00 PM 40.1016 -74.0373 223° Southwest  Level Estimated
Thu 10:44:00 PM 40.0841 -73.9169 101° East  Level FlightAware Approximate
Thu 10:45:00 PM 40.0028 -73.9778 220° Southwest  Level Estimated
Thu 10:46:00 PM 39.9437 -73.8828 129° Southeast  Level FlightAware Approximate
Thu 10:47:00 PM 39.8852 -73.7892 129° Southeast  Level FlightAware Approximate
Thu 10:48:00 PM 39.8056 -73.8507 221° Southwest  Level Estimated
Thu 10:49:00 PM 39.7137 -73.8656 187° South  Level FlightAware Approximate
Thu 10:50:00 PM 39.6218 -73.8804 187° South  Level FlightAware Approximate
Thu 10:58:00 PM 40.4474 -73.5974 143° Southeast  Level FlightAware Approximate
Thu 10:59:27 PM 40.6330 -73.7820 300° West 120 138  Level FlightAware ADS-B
Thu 10:59:52 PM 40.6410 -73.8010 299° West 161 185 500 1,800 Climbing FlightAware ADS-B
Thu 11:00:07 PM 40.6450 -73.8140 292° West 159 183 1,200 2,143 Climbing FlightAware ADS-B
Thu 11:00:34 PM 40.6370 -73.8420 249° West 194 223 2,000 1,696 Climbing FlightAware ADS-B
Thu 11:00:53 PM 40.6270 -73.8640 239° Southwest 230 265 2,500 1,556 Climbing FlightAware ADS-B
Thu 11:01:01 PM 40.6220 -73.8720 231° Southwest 241 277 2,700 1,846 Climbing FlightAware ADS-B
Thu 11:01:06 PM 40.6180 -73.8760 217° Southwest 248 285 2,900 2,308 Climbing FlightAware ADS-B
Thu 11:01:14 PM 40.6080 -73.8820 204° Southwest 264 304 3,200 2,250 Climbing FlightAware ADS-B
Thu 11:01:22 PM 40.5980 -73.8840 189° South 273 314 3,500 2,903 Climbing FlightAware ADS-B
Thu 11:01:45 PM 40.5700 -73.8760 168° South 291 335 4,700 3,353 Climbing FlightAware ADS-B
Thu 11:01:56 PM 40.5570 -73.8660 150° Southeast 295 339 5,400 3,529 Climbing FlightAware ADS-B
Thu 11:02:02 PM 40.5510 -73.8590 138° Southeast 295 339 5,700 4,364 Climbing FlightAware ADS-B
Thu 11:02:18 PM 40.5360 -73.8410 138° Southeast 284 327 7,000 4,667 Climbing FlightAware ADS-B
Thu 11:02:38 PM 40.5190 -73.8160 132° Southeast 281 323 8,500 4,000 Climbing FlightAware ADS-B
Thu 11:02:54 PM 40.5050 -73.7950 131° Southeast 286 329 9,400 2,824 Climbing FlightAware ADS-B
Thu 11:03:29 PM 40.4730 -73.7460 131° Southeast 317 365 10,900 2,294 Climbing FlightAware ADS-B
Thu 11:04:02 PM 40.4370 -73.6930 132° Southeast 355 409 12,000 2,455 Climbing FlightAware ADS-B
Thu 11:04:35 PM 40.4020 -73.6400 131° Southeast 363 418 13,600 2,704 Climbing FlightAware ADS-B
Thu 11:05:13 PM 40.3590 -73.5770 132° Southeast 378 435 15,200 1,833 Climbing FlightAware ADS-B
Thu 11:05:47 PM 40.3170 -73.5150 132° Southeast 380 437 15,800 930 Climbing FlightAware ADS-B
Thu 11:06:24 PM 40.2730 -73.4510 132° Southeast 388 447 16,300 1,750 Climbing FlightAware ADS-B
Thu 11:06:59 PM 40.2310 -73.3930 133° Southeast 394 453 17,900 2,556 Climbing FlightAware ADS-B
Thu 11:07:18 PM 40.2010 -73.3660 145° Southeast 405 466 18,600 2,462 Climbing FlightAware ADS-B
Thu 11:07:38 PM 40.1650 -73.3490 160° South 408 470 19,500 2,235 Climbing FlightAware ADS-B
Thu 11:08:09 PM 40.1110 -73.3400 173° South 418 481 20,500 2,069 Climbing FlightAware ADS-B
Thu 11:08:36 PM 40.0590 -73.3470 186° South 421 484 21,500 1,964 Climbing FlightAware ADS-B
Thu 11:09:04 PM 40.0040 -73.3730 200° South 433 498 22,300 1,750 Climbing FlightAware ADS-B
Thu 11:09:24 PM 39.9690 -73.4020 212° Southwest 432 497 22,900 750 Climbing FlightAware ADS-B
Thu 11:10:00 PM 39.9140 -73.4630 220° Southwest 431 496 23,000 87 Climbing FlightAware ADS-B
Thu 11:10:33 PM 39.8650 -73.5180 221° Southwest 433 498 23,000 867 Level FlightAware ADS-B
Thu 11:11:23 PM 39.7870 -73.6010 219° Southwest 440 506 24,200 1,518 Climbing FlightAware ADS-B
Thu 11:11:56 PM 39.7310 -73.6540 216° Southwest 451 519 25,100 1,241 Climbing FlightAware ADS-B
Thu 11:12:50 PM 39.6460 -73.7340 216° Southwest 452 520 26,000 607 Climbing FlightAware ADS-B
Thu 11:13:25 PM 39.5960 -73.7810 216° Southwest 452 520 26,000  Level FlightAware ADS-B
Thu 11:14:01 PM 39.5440 -73.8300 216° Southwest 452 520 26,000  Level FlightAware ADS-B
Thu 11:14:31 PM 39.5010 -73.8710 216° Southwest 452 520 26,000  Level FlightAware ADS-B
Thu 11:15:05 PM 39.4520 -73.9170 216° Southwest 452 520 26,000 3,600 Level FlightAware ADS-B
Thu 11:15:51 PM 39.3360 -74.0310 217° Southwest 482 555 30,800 4,376 Climbing FlightAware ADS-B
Thu 11:16:30 PM 39.2570 -74.1060 216° Southwest 474 545 32,200 2,053 Climbing FlightAware ADS-B
Thu 11:17:07 PM 39.1910 -74.1690 217° Southwest 468 539 33,400 1,478 Climbing FlightAware ADS-B
Thu 11:17:39 PM 39.1350 -74.2220 216° Southwest 467 537 33,900 522 Climbing FlightAware ADS-B
Thu 11:18:16 PM 39.0710 -74.2830 217° Southwest 462 532 34,000 82 Climbing FlightAware ADS-B
Thu 11:18:52 PM 39.0080 -74.3410 216° Southwest 465 535 34,000 435 Level FlightAware ADS-B
Thu 11:19:25 PM 38.9530 -74.3930 216° Southwest 458 527 34,500 1,059 Climbing FlightAware ADS-B
Thu 11:20:00 PM 38.8910 -74.4510 216° Southwest 458 527 35,200 1,029 Climbing FlightAware ADS-B
Thu 11:20:35 PM 38.8310 -74.5070 216° Southwest 461 531 35,700 1,013 Climbing FlightAware ADS-B
Thu 11:21:17 PM 38.7580 -74.5760 216° Southwest 463 533 36,500 1,247 Climbing FlightAware ADS-B
Thu 11:21:52 PM 38.6960 -74.6330 216° Southwest 458 527 37,300 1,200 Climbing FlightAware ADS-B
Thu 11:22:27 PM 38.6340 -74.6900 216° Southwest 458 527 37,900 592 Climbing FlightAware ADS-B
Thu 11:23:03 PM 38.5740 -74.7470 217° Southwest 458 527 38,000 85 Climbing FlightAware ADS-B
Thu 11:23:38 PM 38.5120 -74.8040 216° Southwest 458 527 38,000  Level FlightAware ADS-B
Thu 11:24:13 PM 38.4530 -74.8580 216° Southwest 461 531 38,000  Level FlightAware ADS-B
Thu 11:24:49 PM 38.3890 -74.9170 216° Southwest 461 531 38,000  Level FlightAware ADS-B
Thu 11:25:24 PM 38.3290 -74.9720 216° Southwest 460 529 38,000  Level FlightAware ADS-B
Thu 11:26:04 PM 38.2570 -75.0390 216° Southwest 459 528 38,000  Level FlightAware ADS-B
Thu 11:26:39 PM 38.1980 -75.0930 216° Southwest 459 528 38,000  Level FlightAware ADS-B
Thu 11:27:14 PM 38.1350 -75.1500 215° Southwest 459 528 38,000  Level FlightAware ADS-B
Thu 11:27:49 PM 38.0740 -75.2050 215° Southwest 459 528 38,000  Level FlightAware ADS-B
Thu 11:28:24 PM 38.0120 -75.2610 215° Southwest 458 527 38,000  Level FlightAware ADS-B
Thu 11:29:00 PM 37.9500 -75.3170 215° Southwest 458 527 38,000  Level FlightAware ADS-B
Thu 11:29:35 PM 37.8880 -75.3740 216° Southwest 457 526 38,000  Level FlightAware ADS-B
Thu 11:30:15 PM 37.8190 -75.4370 216° Southwest 457 526 38,000  Level FlightAware ADS-B
Thu 11:30:50 PM 37.7580 -75.4920 215° Southwest 457 526 38,000  Level FlightAware ADS-B
Thu 11:31:26 PM 37.6960 -75.5470 215° Southwest 458 527 38,000  Level FlightAware ADS-B
Thu 11:32:00 PM 37.6370 -75.6000 215° Southwest 458 527 38,000  Level FlightAware ADS-B
Thu 11:32:40 PM 37.5660 -75.6640 216° Southwest 458 527 38,000  Level FlightAware ADS-B
Thu 11:33:10 PM 37.5120 -75.7120 215° Southwest 458 527 38,000  Level FlightAware ADS-B
Thu 11:33:42 PM 37.4550 -75.7630 215° Southwest 459 528 38,000  Level FlightAware ADS-B
Thu 11:34:22 PM 37.3860 -75.8240 215° Southwest 458 527 38,000  Level FlightAware ADS-B
Thu 11:34:57 PM 37.3240 -75.8790 215° Southwest 458 527 38,000  Level FlightAware ADS-B
Thu 11:35:32 PM 37.2640 -75.9330 216° Southwest 457 526 38,000  Level FlightAware ADS-B
Thu 11:36:07 PM 37.2030 -75.9900 217° Southwest 455 524 38,000  Level FlightAware ADS-B
Thu 11:36:42 PM 37.1460 -76.0490 220° Southwest 459 528 38,000  Level FlightAware ADS-B
Thu 11:37:17 PM 37.0890 -76.1070 219° Southwest 458 527 38,000  Level FlightAware ADS-B
Thu 11:37:53 PM 37.0310 -76.1650 219° Southwest 458 527 38,000  Level FlightAware ADS-B
Thu 11:38:27 PM 36.9730 -76.2230 219° Southwest 454 522 38,000  Level FlightAware ADS-B
Thu 11:39:02 PM 36.9170 -76.2790 219° Southwest 454 522 38,000  Level FlightAware ADS-B
Thu 11:39:38 PM 36.8540 -76.3420 219° Southwest 462 532 38,000  Level FlightAware ADS-B
Thu 11:40:13 PM 36.7950 -76.4010 219° Southwest 461 531 38,000  Level FlightAware ADS-B
Thu 11:40:47 PM 36.7370 -76.4580 218° Southwest 462 532 38,000  Level FlightAware ADS-B
Thu 11:41:22 PM 36.6790 -76.5150 218° Southwest 461 531 38,000  Level FlightAware ADS-B
Thu 11:41:59 PM 36.6170 -76.5770 219° Southwest 461 531 38,000  Level FlightAware ADS-B
Thu 11:42:31 PM 36.5630 -76.6300 218° Southwest 460 529 38,000  Level FlightAware ADS-B
Thu 11:43:08 PM 36.5020 -76.6900 218° Southwest 460 529 38,000  Level FlightAware ADS-B
Thu 11:43:51 PM 36.4340 -76.7570 218° Southwest 455 524 38,000  Level FlightAware ADS-B
Thu 11:44:31 PM 36.3660 -76.8230 218° Southwest 455 524 38,000  Level FlightAware ADS-B
Thu 11:45:06 PM 36.3070 -76.8810 218° Southwest 456 525 38,000  Level FlightAware ADS-B
Thu 11:45:41 PM 36.2490 -76.9380 218° Southwest 456 525 38,000  Level FlightAware ADS-B
Thu 11:46:21 PM 36.1800 -77.0050 218° Southwest 457 526 38,000  Level FlightAware ADS-B
Thu 11:46:51 PM 36.1300 -77.0530 218° Southwest 457 526 38,000  Level FlightAware ADS-B
Thu 11:47:26 PM 36.0710 -77.1100 218° Southwest 458 527 38,000  Level FlightAware ADS-B
Thu 11:48:19 PM 35.9960 -77.1830 218° Southwest 458 527 38,000  Level FlightAware ADS-B
Thu 11:48:51 PM 35.9320 -77.2450 218° Southwest 467 537 38,000  Level FlightAware ADS-B
Thu 11:49:30 PM 35.8580 -77.3170 218° Southwest 467 537 38,000  Level FlightAware ADS-B
Thu 11:50:02 PM 35.8070 -77.3650 217° Southwest 468 539 38,000  Level FlightAware ADS-B
Thu 11:50:37 PM 35.7450 -77.4240 218° Southwest 467 537 38,000  Level FlightAware ADS-B
Thu 11:51:21 PM 35.6700 -77.4960 218° Southwest 467 537 38,000  Level FlightAware ADS-B
Thu 11:51:51 PM 35.6270 -77.5370 218° Southwest 465 535 38,000  Level FlightAware ADS-B
Thu 11:52:45 PM 35.5290 -77.6310 218° Southwest 462 532 38,000  Level FlightAware ADS-B
Thu 11:53:21 PM 35.4690 -77.6880 218° Southwest 461 531 38,000  Level FlightAware ADS-B
Thu 11:54:09 PM 35.3910 -77.7620 218° Southwest 460 529 38,000  Level FlightAware ADS-B
Thu 11:54:39 PM 35.3400 -77.8100 218° Southwest 460 529 38,000  Level FlightAware ADS-B
Thu 11:55:15 PM 35.2760 -77.8710 218° Southwest 460 529 38,000  Level FlightAware ADS-B
Thu 11:55:51 PM 35.2160 -77.9270 217° Southwest 463 533 38,000  Level FlightAware ADS-B
Thu 11:56:35 PM 35.1400 -77.9990 218° Southwest 463 533 38,000  Level FlightAware ADS-B
Thu 11:57:25 PM 35.0570 -78.0770 218° Southwest 463 533 38,000  Level FlightAware ADS-B
Thu 11:57:57 PM 35.0020 -78.1280 217° Southwest 464 534 38,000  Level FlightAware ADS-B
Thu 11:58:33 PM 34.9400 -78.1860 217° Southwest 465 535 38,000  Level FlightAware ADS-B
Thu 11:59:11 PM 34.8810 -78.2410 217° Southwest 466 536 38,000  Level FlightAware ADS-B
Thu 11:59:43 PM 34.8230 -78.2950 217° Southwest 466 536 38,000  Level FlightAware ADS-B
Fri 12:00:17 AM 34.7640 -78.3500 217° Southwest 466 536 38,000  Level FlightAware ADS-B
Fri 12:00:52 AM 34.7090 -78.4010 217° Southwest 466 536 38,000  Level FlightAware ADS-B
Fri 12:01:25 AM 34.6480 -78.4580 218° Southwest 465 535 38,000  Level FlightAware ADS-B
Fri 12:02:09 AM 34.7660 -78.3480 37° Northeast 466 536 38,000  Level FlightAware ADS-B
Fri 12:02:44 AM 34.7040 -78.4060 218° Southwest 466 536 38,000  Level FlightAware ADS-B
Fri 12:03:20 AM 34.6410 -78.4650 218° Southwest 465 535 38,000  Level FlightAware ADS-B
Fri 12:03:54 AM 34.5540 -78.5450 217° Southwest 464 534 38,000  Level FlightAware ADS-B
Fri 12:04:29 AM 34.4960 -78.5980 217° Southwest 465 535 38,000  Level FlightAware ADS-B
Fri 12:05:04 AM 34.4420 -78.6460 216° Southwest 468 539 38,000  Level FlightAware ADS-B
Fri 12:05:34 AM 34.3780 -78.6850 207° Southwest 480 552 38,000  Level FlightAware ADS-B
Fri 12:06:11 AM 34.3220 -78.7110 201° Southwest 479 551 38,000  Level FlightAware ADS-B
Fri 12:06:50 AM 34.2870 -78.7280 202° Southwest 479 551 38,000  Level FlightAware ADS-B
Fri 12:07:23 AM 34.2550 -78.7440 202° Southwest 478 550 38,000  Level FlightAware ADS-B
Fri 12:08:01 AM 34.2210 -78.7620 204° Southwest 478 550 38,000  Level FlightAware ADS-B
Fri 12:08:42 AM 34.1860 -78.7800 203° Southwest 478 550 38,000  Level FlightAware ADS-B
Fri 12:09:18 AM 34.1390 -78.8040 203° Southwest 478 550 38,000  Level FlightAware ADS-B
Fri 12:09:52 AM 34.0660 -78.8410 203° Southwest 478 550 38,000  Level FlightAware ADS-B
Fri 12:10:28 AM 33.5750 -79.0870 203° Southwest 479 551 38,000  Level FlightAware ADS-B
Fri 12:11:05 AM 33.4990 -79.1250 203° Southwest 477 549 38,000  Level FlightAware ADS-B
Fri 12:11:51 AM 33.4060 -79.1710 202° Southwest 474 545 38,000  Level FlightAware ADS-B
Fri 12:12:21 AM 33.3450 -79.2020 203° Southwest 472 543 38,000  Level FlightAware ADS-B
Fri 12:12:58 AM 33.2720 -79.2380 202° Southwest 471 542 38,000  Level FlightAware ADS-B
Fri 12:13:35 AM 33.1960 -79.2750 202° Southwest 469 540 38,000  Level FlightAware ADS-B
Fri 12:14:10 AM 33.1280 -79.3090 203° Southwest 468 539 38,000  Level FlightAware ADS-B
Fri 12:14:43 AM 33.0610 -79.3420 202° Southwest 465 535 38,000  Level FlightAware ADS-B
Fri 12:15:18 AM 32.9900 -79.3770 202° Southwest 464 534 38,000  Level FlightAware ADS-B
Fri 12:15:59 AM 32.9110 -79.4160 203° Southwest 464 534 38,000  Level FlightAware ADS-B
Fri 12:16:35 AM 32.8390 -79.4510 202° Southwest 464 534 38,000  Level FlightAware ADS-B
Fri 12:17:10 AM 32.7690 -79.4850 202° Southwest 464 534 38,000  Level FlightAware ADS-B
Fri 12:17:46 AM 32.6980 -79.5200 203° Southwest 464 534 38,000  Level FlightAware ADS-B
Fri 12:18:20 AM 32.6300 -79.5530 202° Southwest 464 534 38,000  Level FlightAware ADS-B
Fri 12:18:55 AM 32.5610 -79.5870 203° Southwest 462 532 38,000  Level FlightAware ADS-B
Fri 12:19:30 AM 32.4910 -79.6210 202° Southwest 461 531 38,000  Level FlightAware ADS-B
Fri 12:20:05 AM 32.4240 -79.6530 202° Southwest 461 531 38,000  Level FlightAware ADS-B
Fri 12:20:40 AM 32.3530 -79.6880 203° Southwest 462 532 38,000  Level FlightAware ADS-B
Fri 12:21:15 AM 32.2900 -79.7180 202° Southwest 461 531 38,000  Level FlightAware ADS-B
Fri 12:21:50 AM 32.2150 -79.7540 202° Southwest 461 531 38,000  Level FlightAware ADS-B
Fri 12:22:25 AM 32.1470 -79.7870 202° Southwest 461 531 38,000  Level FlightAware ADS-B
Fri 12:22:55 AM 32.0870 -79.8160 202° Southwest 461 531 38,000  Level FlightAware ADS-B
Fri 12:23:35 AM 32.0090 -79.8530 202° Southwest 461 531 38,000  Level FlightAware ADS-B
Fri 12:24:10 AM 31.9390 -79.8870 202° Southwest 458 527 38,000  Level FlightAware ADS-B
Fri 12:24:45 AM 31.8710 -79.9200 202° Southwest 457 526 38,000  Level FlightAware ADS-B
Fri 12:25:20 AM 31.8030 -79.9520 202° Southwest 457 526 38,000  Level FlightAware ADS-B
Fri 12:25:55 AM 31.7340 -79.9850 202° Southwest 457 526 38,000  Level FlightAware ADS-B
Fri 12:26:35 AM 31.6550 -80.0230 202° Southwest 460 529 38,000  Level FlightAware ADS-B
Fri 12:27:10 AM 31.5850 -80.0560 202° Southwest 461 531 38,000  Level FlightAware ADS-B
Fri 12:27:50 AM 31.5060 -80.0940 202° Southwest 462 532 38,000  Level FlightAware ADS-B
Fri 12:28:20 AM 31.4470 -80.1220 202° Southwest 462 532 38,000  Level FlightAware ADS-B
Fri 12:29:06 AM 31.3540 -80.1660 202° Southwest 462 532 38,000  Level FlightAware ADS-B
Fri 12:29:42 AM 31.2830 -80.1990 202° Southwest 460 529 38,000  Level FlightAware ADS-B
Fri 12:30:13 AM 31.2210 -80.2280 202° Southwest 459 528 38,000  Level FlightAware ADS-B
Fri 12:30:51 AM 31.1580 -80.2580 202° Southwest 459 528 38,000  Level FlightAware ADS-B
Fri 12:31:26 AM 31.0770 -80.2960 202° Southwest 460 529 38,000  Level FlightAware ADS-B
Fri 12:31:58 AM 31.0140 -80.3250 202° Southwest 461 531 38,000  Level FlightAware ADS-B
Fri 12:32:14 AM 30.9840 -80.3400 203° Southwest 461 531 38,000  Level FlightAware ADS-B
Fri 12:33:14 AM 30.8660 -80.3950 202° Southwest 460 529 38,000  Level FlightAware ADS-B
Fri 12:33:25 AM 30.8410 -80.4060 201° Southwest 460 529 38,000  Level FlightAware ADS-B
Fri 12:33:30 AM 30.8340 -80.4100 206° Southwest 460 529 38,000  Level FlightAware ADS-B
Fri 12:33:38 AM 30.8150 -80.4180 200° South 461 531 38,000  Level FlightAware ADS-B
Fri 12:33:45 AM 30.8020 -80.4230 198° South 462 532 38,000  Level FlightAware ADS-B
Fri 12:33:54 AM 30.7840 -80.4300 198° South 462 532 38,000  Level FlightAware ADS-B
Fri 12:33:58 AM 30.7760 -80.4330 198° South 462 532 38,000  Level FlightAware ADS-B
Fri 12:34:04 AM 30.7630 -80.4370 195° South 462 532 38,000  Level FlightAware ADS-B
Fri 12:34:13 AM 30.7460 -80.4440 199° South 462 532 38,000  Level FlightAware ADS-B
Fri 12:34:22 AM 30.7270 -80.4510 198° South 462 532 38,000  Level FlightAware ADS-B
Fri 12:34:26 AM 30.7170 -80.4540 194° South 461 531 38,000  Level FlightAware ADS-B
Fri 12:34:33 AM 30.7050 -80.4590 200° South 461 531 38,000  Level FlightAware ADS-B
Fri 12:34:41 AM 30.6870 -80.4650 196° South 460 529 38,000  Level FlightAware ADS-B
Fri 12:34:46 AM 30.6770 -80.4690 199° South 461 531 38,000  Level FlightAware ADS-B
Fri 12:34:54 AM 30.6600 -80.4750 197° South 460 529 38,000  Level FlightAware ADS-B
Fri 12:35:02 AM 30.6440 -80.4810 198° South 459 528 38,000  Level FlightAware ADS-B
Fri 12:35:09 AM 30.6310 -80.4860 198° South 459 528 38,000  Level FlightAware ADS-B
Fri 12:35:18 AM 30.6130 -80.4930 199° South 458 527 38,000  Level FlightAware ADS-B
Fri 12:35:22 AM 30.6050 -80.4960 198° South 458 527 38,000  Level FlightAware ADS-B
Fri 12:35:28 AM 30.5920 -80.5010 198° South 458 527 38,000  Level FlightAware ADS-B
Fri 12:35:37 AM 30.5730 -80.5080 198° South 458 527 38,000  Level FlightAware ADS-B
Fri 12:35:42 AM 30.5640 -80.5110 196° South 458 527 38,000  Level FlightAware ADS-B
Fri 12:35:50 AM 30.5480 -80.5180 201° Southwest 458 527 38,000  Level FlightAware ADS-B
Fri 12:35:57 AM 30.5340 -80.5230 197° South 458 527 38,000  Level FlightAware ADS-B
Fri 12:36:05 AM 30.5170 -80.5300 200° South 458 527 38,000  Level FlightAware ADS-B
Fri 12:36:14 AM 30.4990 -80.5360 196° South 458 527 38,000  Level FlightAware ADS-B
Fri 12:36:17 AM 30.4940 -80.5380 199° South 458 527 38,000  Level FlightAware ADS-B
Fri 12:36:25 AM 30.4770 -80.5450 200° South 458 527 38,000  Level FlightAware ADS-B
Fri 12:36:33 AM 30.4630 -80.5500 197° South 458 527 38,000  Level FlightAware ADS-B
Fri 12:36:42 AM 30.4420 -80.5580 198° South 459 528 38,000  Level FlightAware ADS-B
Fri 12:36:45 AM 30.4380 -80.5590 192° South 459 528 38,000  Level FlightAware ADS-B
Fri 12:36:53 AM 30.4200 -80.5660 199° South 459 528 38,000  Level FlightAware ADS-B
Fri 12:37:00 AM 30.4070 -80.5710 198° South 461 531 38,000  Level FlightAware ADS-B
Fri 12:37:05 AM 30.3980 -80.5740 196° South 461 531 38,000  Level FlightAware ADS-B
Fri 12:37:13 AM 30.3800 -80.5810 199° South 462 532 38,000  Level FlightAware ADS-B
Fri 12:37:22 AM 30.3620 -80.5880 199° South 462 532 38,000  Level FlightAware ADS-B
Fri 12:37:30 AM 30.3440 -80.5950 199° South 462 532 38,000  Level FlightAware ADS-B
Fri 12:37:37 AM 30.3320 -80.6000 200° South 462 532 38,000  Level FlightAware ADS-B
Fri 12:37:41 AM 30.3220 -80.6030 195° South 462 532 38,000  Level FlightAware ADS-B
Fri 12:37:50 AM 30.3050 -80.6100 200° South 462 532 38,000  Level FlightAware ADS-B
Fri 12:37:57 AM 30.2910 -80.6150 197° South 462 532 38,000  Level FlightAware ADS-B
Fri 12:38:01 AM 30.2820 -80.6180 196° South 462 532 38,000  Level FlightAware ADS-B
Fri 12:38:10 AM 30.2640 -80.6250 199° South 463 533 38,000 -353 Level FlightAware ADS-B
Fri 12:38:18 AM 30.2470 -80.6320 200° South 463 533 37,900 -1,500 Descending FlightAware ADS-B
Fri 12:38:26 AM 30.2310 -80.6370 195° South 462 532 37,600 -1,875 Descending FlightAware ADS-B
Fri 12:38:34 AM 30.2170 -80.6430 200° South 462 532 37,400 -2,182 Descending FlightAware ADS-B
Fri 12:38:37 AM 30.2090 -80.6460 198° South 462 532 37,200 -3,000 Descending FlightAware ADS-B
Fri 12:38:46 AM 30.1910 -80.6530 199° South 461 531 36,800 -2,400 Descending FlightAware ADS-B
Fri 12:38:52 AM 30.1770 -80.6580 197° South 461 531 36,600 -2,182 Descending FlightAware ADS-B
Fri 12:38:57 AM 30.1680 -80.6610 196° South 461 531 36,400 -2,571 Descending FlightAware ADS-B
Fri 12:39:06 AM 30.1510 -80.6680 200° South 462 532 36,000 -2,471 Descending FlightAware ADS-B
Fri 12:39:14 AM 30.1330 -80.6740 196° South 462 532 35,700 -2,400 Descending FlightAware ADS-B
Fri 12:39:21 AM 30.1200 -80.6790 198° South 463 533 35,400 -2,625 Descending FlightAware ADS-B
Fri 12:39:30 AM 30.1010 -80.6860 198° South 465 535 35,000 -2,769 Descending FlightAware ADS-B
Fri 12:39:34 AM 30.0920 -80.6900 201° Southwest 467 537 34,800 -2,182 Descending FlightAware ADS-B
Fri 12:39:41 AM 30.0790 -80.6950 198° South 468 539 34,600 -2,400 Descending FlightAware ADS-B
Fri 12:39:49 AM 30.0610 -80.7010 196° South 471 542 34,200 -2,824 Descending FlightAware ADS-B
Fri 12:39:58 AM 30.0430 -80.7080 199° South 472 543 33,800 -2,500 Descending FlightAware ADS-B
Fri 12:40:01 AM 30.0370 -80.7110 203° Southwest 473 544 33,700 -2,500 Descending FlightAware ADS-B
Fri 12:40:10 AM 30.0190 -80.7170 196° South 473 544 33,300 -2,625 Descending FlightAware ADS-B
Fri 12:40:17 AM 30.0050 -80.7230 200° South 474 545 33,000 -2,400 Descending FlightAware ADS-B
Fri 12:40:25 AM 29.9860 -80.7290 195° South 474 545 32,700 -2,769 Descending FlightAware ADS-B
Fri 12:40:30 AM 29.9750 -80.7340 201° Southwest 474 545 32,400 -2,769 Descending FlightAware ADS-B
Fri 12:40:38 AM 29.9590 -80.7400 198° South 474 545 32,100 -2,400 Descending FlightAware ADS-B
Fri 12:40:45 AM 29.9450 -80.7450 197° South 474 545 31,800 -2,250 Descending FlightAware ADS-B
Fri 12:40:54 AM 29.9260 -80.7520 198° South 476 548 31,500 -2,308 Descending FlightAware ADS-B
Fri 12:40:58 AM 29.9170 -80.7550 196° South 476 548 31,300 -2,769 Descending FlightAware ADS-B
Fri 12:41:07 AM 29.8990 -80.7620 199° South 478 550 30,900 -2,625 Descending FlightAware ADS-B
Fri 12:41:14 AM 29.8850 -80.7670 197° South 479 551 30,600 -2,727 Descending FlightAware ADS-B
Fri 12:41:18 AM 29.8760 -80.7710 201° Southwest 480 552 30,400 -2,308 Descending FlightAware ADS-B
Fri 12:41:27 AM 29.8570 -80.7780 198° South 480 552 30,100 -2,471 Descending FlightAware ADS-B
Fri 12:41:35 AM 29.8400 -80.7840 197° South 479 551 29,700 -2,571 Descending FlightAware ADS-B
Fri 12:41:41 AM 29.8270 -80.7890 198° South 477 549 29,500 -2,727 Descending FlightAware ADS-B
Fri 12:41:46 AM 29.8150 -80.7930 196° South 476 548 29,200 -2,571 Descending FlightAware ADS-B
Fri 12:41:55 AM 29.7970 -80.8000 199° South 476 548 28,900 -2,182 Descending FlightAware ADS-B
Fri 12:41:57 AM 29.7930 -80.8020 203° Southwest 476 548 28,800 -2,769 Descending FlightAware ADS-B
Fri 12:42:08 AM 29.7700 -80.8100 197° South 475 547 28,300 -2,526 Descending FlightAware ADS-B
Fri 12:42:16 AM 29.7540 -80.8160 198° South 476 548 28,000 -2,250 Descending FlightAware ADS-B
Fri 12:42:24 AM 29.7360 -80.8230 199° South 477 549 27,700 -2,400 Descending FlightAware ADS-B
Fri 12:42:31 AM 29.7210 -80.8280 196° South 478 550 27,400 -2,500 Descending FlightAware ADS-B
Fri 12:42:36 AM 29.7130 -80.8310 198° South 479 551 27,200 -2,769 Descending FlightAware ADS-B
Fri 12:42:44 AM 29.6940 -80.8380 198° South 479 551 26,800 -2,800 Descending FlightAware ADS-B
Fri 12:42:51 AM 29.6800 -80.8440 200° South 480 552 26,500 -2,591 Descending FlightAware ADS-B
Fri 12:43:28 AM 29.6020 -80.8730 198° South 474 545 24,900 -2,522 Descending FlightAware ADS-B
Fri 12:44:00 AM 29.5370 -80.8970 198° South 465 535 23,600 -2,471 Descending FlightAware ADS-B
Fri 12:44:36 AM 29.4650 -80.9230 197° South 457 526 22,100 -2,500 Descending FlightAware ADS-B
Fri 12:45:12 AM 29.3920 -80.9500 198° South 445 512 20,600 -2,559 Descending FlightAware ADS-B
Fri 12:45:44 AM 29.3270 -80.9740 198° South 436 502 19,200 -2,522 Descending FlightAware ADS-B
Fri 12:46:21 AM 29.2580 -81.0000 198° South 423 487 17,700 -2,514 Descending FlightAware ADS-B
Fri 12:46:58 AM 29.1900 -81.0250 198° South 413 475 16,100 -2,522 Descending FlightAware ADS-B
Fri 12:47:30 AM 29.1320 -81.0460 198° South 410 472 14,800 -2,492 Descending FlightAware ADS-B
Fri 12:48:03 AM 29.0730 -81.0680 198° South 403 464 13,400 -2,381 Descending FlightAware ADS-B
Fri 12:48:33 AM 29.0190 -81.0850 195° South 395 455 12,300 -1,292 Descending FlightAware ADS-B
Fri 12:49:08 AM 28.9580 -81.0830 178° South 403 464 12,000 -174 Descending FlightAware ADS-B
Fri 12:49:42 AM 28.8920 -81.0930 188° South 398 458 12,100 -385 Climbing FlightAware ADS-B
Fri 12:50:26 AM 28.8150 -81.1070 189° South 375 432 11,500 -987 Descending FlightAware ADS-B
Fri 12:51:01 AM 28.7570 -81.1180 189° South 343 395 10,800 -1,254 Descending FlightAware ADS-B
Fri 12:51:33 AM 28.7070 -81.1280 190° South 319 367 10,100 -1,358 Descending FlightAware ADS-B
Fri 12:51:54 AM 28.6770 -81.1330 188° South 310 357 9,600 -1,660 Descending FlightAware ADS-B
Fri 12:52:20 AM 28.6410 -81.1400 190° South 312 359 8,800 -1,565 Descending FlightAware ADS-B
Fri 12:52:40 AM 28.6140 -81.1450 189° South 303 349 8,400 -1,313 Descending FlightAware ADS-B
Fri 12:52:52 AM 28.5960 -81.1490 191° South 296 341 8,100 -2,167 Descending FlightAware ADS-B
Fri 12:53:16 AM 28.5630 -81.1550 189° South 293 337 7,100 -2,571 Descending FlightAware ADS-B
Fri 12:53:27 AM 28.5500 -81.1570 188° South 297 342 6,600 -2,000 Descending FlightAware ADS-B
Fri 12:53:46 AM 28.5220 -81.1620 189° South 295 339 6,100 -878 Descending FlightAware ADS-B
Fri 12:54:08 AM 28.4980 -81.1670 190° South 286 329 6,000 -1,043 Descending FlightAware ADS-B
Fri 12:54:32 AM 28.4640 -81.1740 190° South 278 320 5,300 -2,400 Descending FlightAware ADS-B
Fri 12:54:53 AM 28.4370 -81.1790 189° South 278 320 4,200 -3,000 Descending FlightAware ADS-B
Fri 12:55:08 AM 28.4170 -81.1820 188° South 274 315 3,500 -2,769 Descending FlightAware ADS-B
Fri 12:55:32 AM 28.3880 -81.1870 189° South 274 315 2,400 -1,600 Descending FlightAware ADS-B
Fri 12:56:08 AM 28.3430 -81.1870 180° South 262 302 1,900 -857 Descending FlightAware ADS-B
Fri 12:56:14 AM 28.3360 -81.1880 187° South 257 296 1,800 -333 Descending FlightAware ADS-B
Fri 12:56:26 AM 28.3280 -81.1910 198° South 253 291 1,800 -300 Level FlightAware ADS-B
Fri 12:56:34 AM 28.3200 -81.1970 213° Southwest 245 282 1,700 -231 Descending FlightAware ADS-B
Fri 12:56:52 AM 28.3100 -81.2220 246° West 218 251 1,700  Level FlightAware ADS-B
Fri 12:57:20 AM 28.3100 -81.2530 270° West 200 230 1,700  Level FlightAware ADS-B
Fri 12:57:33 AM 28.3120 -81.2660 280° West 194 223 1,700 -140 Level FlightAware ADS-B
Fri 12:58:03 AM 28.3170 -81.2830 288° West 190 219 1,600 -105 Descending FlightAware ADS-B
Fri 12:58:30 AM 28.3250 -81.3040 293° West 190 219 1,600 -188 Level FlightAware ADS-B
Fri 12:58:35 AM 28.3170 -81.2830 113° Southeast 157 181 1,500 -387 Descending FlightAware ADS-B
Fri 12:59:01 AM 28.3480 -81.3110 322° Northwest 132 152 1,400 -118 Descending FlightAware ADS-B
Fri 12:59:26 AM 28.3600 -81.3180 333° Northwest 132 152 1,400 -764 Level FlightAware ADS-B
Fri 12:59:56 AM 28.3833 -81.3167 333° Northwest 122 140 700 -1,400 Descending Orlando TRACON
Fri 01:01:00 AM 28.4167 -81.3000 336° Northwest  Level FlightAware Approximate
Fri 01:08:00 AM 28.4294 -81.3090 336° Northwest  Level Estimated

Login

Don't have an account? Register now (free) for customized features, flight alerts, and more!